sensor_id;sensor_type;location;lat;lon;timestamp;P1;durP1;ratioP1;P2;durP2;ratioP2
21786;SDS011;11055;50.870;4.316;2023-05-07T00:01:01;8.23;;;3.65;;
21786;SDS011;11055;50.870;4.316;2023-05-07T00:03:27;9.18;;;4.22;;
21786;SDS011;11055;50.870;4.316;2023-05-07T00:05:53;9.57;;;3.85;;
21786;SDS011;11055;50.870;4.316;2023-05-07T00:08:19;8.30;;;3.67;;
21786;SDS011;11055;50.870;4.316;2023-05-07T00:10:45;7.13;;;3.58;;
21786;SDS011;11055;50.870;4.316;2023-05-07T00:13:11;9.57;;;3.78;;
21786;SDS011;11055;50.870;4.316;2023-05-07T00:15:37;7.25;;;3.28;;
21786;SDS011;11055;50.870;4.316;2023-05-07T00:18:02;8.18;;;3.75;;
21786;SDS011;11055;50.870;4.316;2023-05-07T00:20:28;10.88;;;3.45;;
21786;SDS011;11055;50.870;4.316;2023-05-07T00:22:54;9.48;;;3.50;;
21786;SDS011;11055;50.870;4.316;2023-05-07T00:25:20;9.80;;;3.90;;
21786;SDS011;11055;50.870;4.316;2023-05-07T00:27:45;4.93;;;2.92;;
21786;SDS011;11055;50.870;4.316;2023-05-07T00:30:11;6.97;;;3.70;;
21786;SDS011;11055;50.870;4.316;2023-05-07T00:32:37;9.10;;;3.35;;
21786;SDS011;11055;50.870;4.316;2023-05-07T00:35:03;7.20;;;3.10;;
21786;SDS011;11055;50.870;4.316;2023-05-07T00:37:30;8.80;;;3.28;;
21786;SDS011;11055;50.870;4.316;2023-05-07T00:39:56;7.65;;;3.03;;
21786;SDS011;11055;50.870;4.316;2023-05-07T00:42:21;9.43;;;2.63;;
21786;SDS011;11055;50.870;4.316;2023-05-07T00:44:47;6.80;;;3.30;;
21786;SDS011;11055;50.870;4.316;2023-05-07T00:47:13;9.45;;;3.47;;
21786;SDS011;11055;50.870;4.316;2023-05-07T00:49:43;7.70;;;2.67;;
21786;SDS011;11055;50.870;4.316;2023-05-07T00:52:13;5.85;;;2.50;;
21786;SDS011;11055;50.870;4.316;2023-05-07T00:57:06;7.90;;;3.10;;
21786;SDS011;11055;50.870;4.316;2023-05-07T00:59:33;8.65;;;2.92;;
21786;SDS011;11055;50.870;4.316;2023-05-07T01:01:59;7.85;;;2.95;;
21786;SDS011;11055;50.870;4.316;2023-05-07T01:04:25;9.25;;;3.40;;
21786;SDS011;11055;50.870;4.316;2023-05-07T01:06:52;7.13;;;2.85;;
21786;SDS011;11055;50.870;4.316;2023-05-07T01:09:21;7.72;;;2.90;;
21786;SDS011;11055;50.870;4.316;2023-05-07T01:11:48;12.80;;;3.42;;
21786;SDS011;11055;50.870;4.316;2023-05-07T01:14:15;7.05;;;2.90;;
21786;SDS011;11055;50.870;4.316;2023-05-07T01:16:42;6.38;;;2.60;;
21786;SDS011;11055;50.870;4.316;2023-05-07T01:19:08;6.65;;;2.70;;
21786;SDS011;11055;50.870;4.316;2023-05-07T01:21:36;7.07;;;3.45;;
21786;SDS011;11055;50.870;4.316;2023-05-07T01:24:03;7.93;;;3.08;;
21786;SDS011;11055;50.870;4.316;2023-05-07T01:26:30;8.95;;;3.28;;
21786;SDS011;11055;50.870;4.316;2023-05-07T01:28:56;8.38;;;3.25;;
21786;SDS011;11055;50.870;4.316;2023-05-07T01:31:21;9.77;;;3.47;;
21786;SDS011;11055;50.870;4.316;2023-05-07T01:33:49;8.07;;;3.35;;
21786;SDS011;11055;50.870;4.316;2023-05-07T01:36:17;8.82;;;3.50;;
21786;SDS011;11055;50.870;4.316;2023-05-07T01:38:43;10.65;;;3.35;;
21786;SDS011;11055;50.870;4.316;2023-05-07T01:41:09;8.23;;;3.42;;
21786;SDS011;11055;50.870;4.316;2023-05-07T01:43:36;6.80;;;3.10;;
21786;SDS011;11055;50.870;4.316;2023-05-07T01:46:02;7.75;;;3.80;;
21786;SDS011;11055;50.870;4.316;2023-05-07T01:48:28;6.82;;;4.05;;
21786;SDS011;11055;50.870;4.316;2023-05-07T01:50:55;7.57;;;3.90;;
21786;SDS011;11055;50.870;4.316;2023-05-07T01:53:20;6.68;;;3.10;;
21786;SDS011;11055;50.870;4.316;2023-05-07T01:55:46;8.27;;;3.42;;
21786;SDS011;11055;50.870;4.316;2023-05-07T01:58:12;6.72;;;3.22;;
21786;SDS011;11055;50.870;4.316;2023-05-07T02:00:37;11.68;;;3.20;;
21786;SDS011;11055;50.870;4.316;2023-05-07T02:03:03;6.53;;;2.88;;
21786;SDS011;11055;50.870;4.316;2023-05-07T02:05:29;7.90;;;3.47;;
21786;SDS011;11055;50.870;4.316;2023-05-07T02:07:55;6.22;;;2.78;;
21786;SDS011;11055;50.870;4.316;2023-05-07T02:10:20;7.43;;;3.00;;
21786;SDS011;11055;50.870;4.316;2023-05-07T02:12:46;9.77;;;3.50;;
21786;SDS011;11055;50.870;4.316;2023-05-07T02:15:12;7.88;;;3.50;;
21786;SDS011;11055;50.870;4.316;2023-05-07T02:17:57;7.53;;;3.17;;
21786;SDS011;11055;50.870;4.316;2023-05-07T02:20:27;8.98;;;3.53;;
21786;SDS011;11055;50.870;4.316;2023-05-07T02:22:53;8.93;;;3.53;;
21786;SDS011;11055;50.870;4.316;2023-05-07T02:25:19;6.20;;;3.03;;
21786;SDS011;11055;50.870;4.316;2023-05-07T02:27:44;9.57;;;3.10;;
21786;SDS011;11055;50.870;4.316;2023-05-07T02:30:10;7.85;;;3.15;;
21786;SDS011;11055;50.870;4.316;2023-05-07T02:32:36;9.73;;;3.47;;
21786;SDS011;11055;50.870;4.316;2023-05-07T02:35:01;7.97;;;3.05;;
21786;SDS011;11055;50.870;4.316;2023-05-07T02:37:27;5.80;;;2.67;;
21786;SDS011;11055;50.870;4.316;2023-05-07T02:39:53;8.80;;;3.40;;
21786;SDS011;11055;50.870;4.316;2023-05-07T02:42:18;10.68;;;3.45;;
21786;SDS011;11055;50.870;4.316;2023-05-07T02:44:44;9.00;;;3.60;;
21786;SDS011;11055;50.870;4.316;2023-05-07T02:47:10;10.45;;;4.03;;
21786;SDS011;11055;50.870;4.316;2023-05-07T02:49:38;8.32;;;3.90;;
21786;SDS011;11055;50.870;4.316;2023-05-07T02:52:04;9.45;;;3.80;;
21786;SDS011;11055;50.870;4.316;2023-05-07T02:54:29;10.63;;;3.55;;
21786;SDS011;11055;50.870;4.316;2023-05-07T02:56:55;8.57;;;3.50;;
21786;SDS011;11055;50.870;4.316;2023-05-07T02:59:21;7.63;;;3.63;;
21786;SDS011;11055;50.870;4.316;2023-05-07T03:01:47;8.70;;;3.67;;
21786;SDS011;11055;50.870;4.316;2023-05-07T03:04:13;8.55;;;3.60;;
21786;SDS011;11055;50.870;4.316;2023-05-07T03:06:38;8.07;;;4.13;;
21786;SDS011;11055;50.870;4.316;2023-05-07T03:09:04;8.02;;;3.80;;
21786;SDS011;11055;50.870;4.316;2023-05-07T03:11:30;9.60;;;4.20;;
21786;SDS011;11055;50.870;4.316;2023-05-07T03:13:56;9.90;;;4.20;;
21786;SDS011;11055;50.870;4.316;2023-05-07T03:16:21;7.22;;;3.67;;
21786;SDS011;11055;50.870;4.316;2023-05-07T03:18:47;7.75;;;3.78;;
21786;SDS011;11055;50.870;4.316;2023-05-07T03:21:12;8.40;;;4.10;;
21786;SDS011;11055;50.870;4.316;2023-05-07T03:23:38;9.88;;;3.92;;
21786;SDS011;11055;50.870;4.316;2023-05-07T03:26:04;8.20;;;4.07;;
21786;SDS011;11055;50.870;4.316;2023-05-07T03:28:30;8.60;;;4.07;;
21786;SDS011;11055;50.870;4.316;2023-05-07T03:30:55;8.70;;;4.03;;
21786;SDS011;11055;50.870;4.316;2023-05-07T03:33:21;8.48;;;3.70;;
21786;SDS011;11055;50.870;4.316;2023-05-07T03:35:47;9.65;;;4.18;;
21786;SDS011;11055;50.870;4.316;2023-05-07T03:38:12;7.07;;;3.88;;
21786;SDS011;11055;50.870;4.316;2023-05-07T03:40:38;9.07;;;4.22;;
21786;SDS011;11055;50.870;4.316;2023-05-07T03:43:04;8.32;;;4.57;;
21786;SDS011;11055;50.870;4.316;2023-05-07T03:45:30;6.90;;;4.15;;
21786;SDS011;11055;50.870;4.316;2023-05-07T03:47:55;9.20;;;3.97;;
21786;SDS011;11055;50.870;4.316;2023-05-07T03:50:21;7.35;;;4.40;;
21786;SDS011;11055;50.870;4.316;2023-05-07T03:52:46;9.85;;;4.43;;
21786;SDS011;11055;50.870;4.316;2023-05-07T03:55:12;7.38;;;4.10;;
21786;SDS011;11055;50.870;4.316;2023-05-07T03:57:38;9.82;;;4.13;;
21786;SDS011;11055;50.870;4.316;2023-05-07T04:00:03;8.73;;;4.35;;
21786;SDS011;11055;50.870;4.316;2023-05-07T04:02:30;9.63;;;4.78;;
21786;SDS011;11055;50.870;4.316;2023-05-07T04:04:56;10.05;;;4.55;;
21786;SDS011;11055;50.870;4.316;2023-05-07T04:07:22;11.10;;;4.97;;
21786;SDS011;11055;50.870;4.316;2023-05-07T04:09:47;7.55;;;4.68;;
21786;SDS011;11055;50.870;4.316;2023-05-07T04:12:13;11.60;;;4.78;;
21786;SDS011;11055;50.870;4.316;2023-05-07T04:14:38;8.77;;;4.38;;
21786;SDS011;11055;50.870;4.316;2023-05-07T04:17:04;9.02;;;4.43;;
21786;SDS011;11055;50.870;4.316;2023-05-07T04:19:33;9.13;;;4.32;;
21786;SDS011;11055;50.870;4.316;2023-05-07T04:21:58;10.82;;;5.47;;
21786;SDS011;11055;50.870;4.316;2023-05-07T04:24:24;9.52;;;4.88;;
21786;SDS011;11055;50.870;4.316;2023-05-07T04:26:50;7.63;;;4.90;;
21786;SDS011;11055;50.870;4.316;2023-05-07T04:29:16;9.38;;;4.82;;
21786;SDS011;11055;50.870;4.316;2023-05-07T04:31:42;8.65;;;4.72;;
21786;SDS011;11055;50.870;4.316;2023-05-07T04:34:09;9.45;;;5.03;;
21786;SDS011;11055;50.870;4.316;2023-05-07T04:36:36;10.55;;;5.80;;
21786;SDS011;11055;50.870;4.316;2023-05-07T04:39:05;10.68;;;5.60;;
21786;SDS011;11055;50.870;4.316;2023-05-07T04:41:31;8.77;;;5.30;;
21786;SDS011;11055;50.870;4.316;2023-05-07T04:43:57;15.25;;;5.97;;
21786;SDS011;11055;50.870;4.316;2023-05-07T04:46:24;10.40;;;5.50;;
21786;SDS011;11055;50.870;4.316;2023-05-07T04:48:49;6.10;;;5.10;;
21786;SDS011;11055;50.870;4.316;2023-05-07T04:51:15;9.15;;;5.47;;
21786;SDS011;11055;50.870;4.316;2023-05-07T04:53:41;10.05;;;5.10;;
21786;SDS011;11055;50.870;4.316;2023-05-07T04:56:08;7.18;;;5.18;;
21786;SDS011;11055;50.870;4.316;2023-05-07T04:58:33;11.52;;;5.22;;
21786;SDS011;11055;50.870;4.316;2023-05-07T05:00:59;7.63;;;4.68;;
21786;SDS011;11055;50.870;4.316;2023-05-07T05:03:25;7.68;;;4.40;;
21786;SDS011;11055;50.870;4.316;2023-05-07T05:05:51;8.20;;;4.90;;
21786;SDS011;11055;50.870;4.316;2023-05-07T05:08:17;9.05;;;5.07;;
21786;SDS011;11055;50.870;4.316;2023-05-07T05:10:43;9.02;;;4.35;;
21786;SDS011;11055;50.870;4.316;2023-05-07T05:13:09;12.98;;;4.78;;
21786;SDS011;11055;50.870;4.316;2023-05-07T05:15:37;10.77;;;4.40;;
21786;SDS011;11055;50.870;4.316;2023-05-07T05:18:03;8.93;;;4.50;;
21786;SDS011;11055;50.870;4.316;2023-05-07T05:20:29;9.32;;;4.75;;
21786;SDS011;11055;50.870;4.316;2023-05-07T05:22:55;7.85;;;4.38;;
21786;SDS011;11055;50.870;4.316;2023-05-07T05:25:21;9.30;;;4.63;;
21786;SDS011;11055;50.870;4.316;2023-05-07T05:27:46;7.38;;;4.22;;
21786;SDS011;11055;50.870;4.316;2023-05-07T05:30:12;8.70;;;4.47;;
21786;SDS011;11055;50.870;4.316;2023-05-07T05:32:38;10.30;;;4.18;;
21786;SDS011;11055;50.870;4.316;2023-05-07T05:35:04;7.45;;;3.95;;
21786;SDS011;11055;50.870;4.316;2023-05-07T05:37:29;9.23;;;4.93;;
21786;SDS011;11055;50.870;4.316;2023-05-07T05:39:56;10.90;;;4.50;;
21786;SDS011;11055;50.870;4.316;2023-05-07T05:42:22;8.70;;;4.25;;
21786;SDS011;11055;50.870;4.316;2023-05-07T05:44:48;8.35;;;4.63;;
21786;SDS011;11055;50.870;4.316;2023-05-07T05:47:13;9.95;;;4.72;;
21786;SDS011;11055;50.870;4.316;2023-05-07T05:49:39;8.93;;;4.35;;
21786;SDS011;11055;50.870;4.316;2023-05-07T05:52:05;12.80;;;4.30;;
21786;SDS011;11055;50.870;4.316;2023-05-07T05:54:31;9.63;;;4.40;;
21786;SDS011;11055;50.870;4.316;2023-05-07T05:56:56;7.80;;;3.92;;
21786;SDS011;11055;50.870;4.316;2023-05-07T05:59:22;8.23;;;3.47;;
21786;SDS011;11055;50.870;4.316;2023-05-07T06:01:48;11.50;;;3.97;;
21786;SDS011;11055;50.870;4.316;2023-05-07T06:04:14;7.97;;;3.53;;
21786;SDS011;11055;50.870;4.316;2023-05-07T06:06:39;11.65;;;3.72;;
21786;SDS011;11055;50.870;4.316;2023-05-07T06:09:05;9.15;;;3.95;;
21786;SDS011;11055;50.870;4.316;2023-05-07T06:11:31;5.70;;;3.38;;
21786;SDS011;11055;50.870;4.316;2023-05-07T06:13:57;12.15;;;4.57;;
21786;SDS011;11055;50.870;4.316;2023-05-07T06:16:24;9.77;;;4.80;;
21786;SDS011;11055;50.870;4.316;2023-05-07T06:18:50;12.45;;;5.15;;
21786;SDS011;11055;50.870;4.316;2023-05-07T06:21:15;12.30;;;5.18;;
21786;SDS011;11055;50.870;4.316;2023-05-07T06:23:41;12.90;;;4.78;;
21786;SDS011;11055;50.870;4.316;2023-05-07T06:26:07;11.25;;;4.82;;
21786;SDS011;11055;50.870;4.316;2023-05-07T06:28:32;10.50;;;5.18;;
21786;SDS011;11055;50.870;4.316;2023-05-07T06:31:19;9.10;;;5.05;;
21786;SDS011;11055;50.870;4.316;2023-05-07T06:33:45;20.90;;;8.80;;
21786;SDS011;11055;50.870;4.316;2023-05-07T06:36:11;15.40;;;6.45;;
21786;SDS011;11055;50.870;4.316;2023-05-07T06:38:37;9.52;;;5.57;;
21786;SDS011;11055;50.870;4.316;2023-05-07T06:41:02;10.10;;;5.80;;
21786;SDS011;11055;50.870;4.316;2023-05-07T06:43:28;12.38;;;7.03;;
21786;SDS011;11055;50.870;4.316;2023-05-07T06:45:54;11.38;;;6.85;;
21786;SDS011;11055;50.870;4.316;2023-05-07T06:48:19;13.52;;;7.55;;
21786;SDS011;11055;50.870;4.316;2023-05-07T06:50:45;15.65;;;6.72;;
21786;SDS011;11055;50.870;4.316;2023-05-07T06:53:11;12.93;;;7.25;;
21786;SDS011;11055;50.870;4.316;2023-05-07T06:55:36;16.33;;;7.30;;
21786;SDS011;11055;50.870;4.316;2023-05-07T06:58:03;16.17;;;8.48;;
21786;SDS011;11055;50.870;4.316;2023-05-07T07:00:29;12.30;;;6.50;;
21786;SDS011;11055;50.870;4.316;2023-05-07T07:02:55;11.88;;;5.93;;
21786;SDS011;11055;50.870;4.316;2023-05-07T07:05:21;10.05;;;5.63;;
21786;SDS011;11055;50.870;4.316;2023-05-07T07:07:47;12.32;;;5.95;;
21786;SDS011;11055;50.870;4.316;2023-05-07T07:10:18;11.30;;;5.32;;
21786;SDS011;11055;50.870;4.316;2023-05-07T07:12:44;9.02;;;5.72;;
21786;SDS011;11055;50.870;4.316;2023-05-07T07:15:10;10.18;;;5.75;;
21786;SDS011;11055;50.870;4.316;2023-05-07T07:17:36;10.30;;;5.45;;
21786;SDS011;11055;50.870;4.316;2023-05-07T07:20:02;10.43;;;6.57;;
21786;SDS011;11055;50.870;4.316;2023-05-07T07:22:28;11.20;;;5.72;;
21786;SDS011;11055;50.870;4.316;2023-05-07T07:24:54;9.60;;;4.90;;
21786;SDS011;11055;50.870;4.316;2023-05-07T07:27:20;11.00;;;6.10;;
21786;SDS011;11055;50.870;4.316;2023-05-07T07:29:45;9.55;;;4.93;;
21786;SDS011;11055;50.870;4.316;2023-05-07T07:32:11;9.40;;;4.85;;
21786;SDS011;11055;50.870;4.316;2023-05-07T07:34:36;11.43;;;4.85;;
21786;SDS011;11055;50.870;4.316;2023-05-07T07:37:02;6.07;;;4.55;;
21786;SDS011;11055;50.870;4.316;2023-05-07T07:39:31;11.77;;;7.38;;
21786;SDS011;11055;50.870;4.316;2023-05-07T07:41:57;6.53;;;5.45;;
21786;SDS011;11055;50.870;4.316;2023-05-07T07:44:23;9.38;;;4.70;;
21786;SDS011;11055;50.870;4.316;2023-05-07T07:46:48;9.50;;;4.53;;
21786;SDS011;11055;50.870;4.316;2023-05-07T07:49:15;6.28;;;4.88;;
21786;SDS011;11055;50.870;4.316;2023-05-07T07:51:41;8.85;;;4.18;;
21786;SDS011;11055;50.870;4.316;2023-05-07T07:54:07;7.32;;;4.43;;
21786;SDS011;11055;50.870;4.316;2023-05-07T07:56:32;9.90;;;4.90;;
21786;SDS011;11055;50.870;4.316;2023-05-07T07:58:59;9.15;;;4.78;;
21786;SDS011;11055;50.870;4.316;2023-05-07T08:01:25;8.30;;;4.22;;
21786;SDS011;11055;50.870;4.316;2023-05-07T08:03:51;7.10;;;4.13;;
21786;SDS011;11055;50.870;4.316;2023-05-07T08:06:16;9.00;;;5.07;;
21786;SDS011;11055;50.870;4.316;2023-05-07T08:08:43;10.32;;;7.40;;
21786;SDS011;11055;50.870;4.316;2023-05-07T08:11:08;7.45;;;4.07;;
21786;SDS011;11055;50.870;4.316;2023-05-07T08:13:34;9.77;;;4.57;;
21786;SDS011;11055;50.870;4.316;2023-05-07T08:16:01;7.68;;;4.53;;
21786;SDS011;11055;50.870;4.316;2023-05-07T08:18:27;8.63;;;4.68;;
21786;SDS011;11055;50.870;4.316;2023-05-07T08:20:54;8.75;;;4.30;;
21786;SDS011;11055;50.870;4.316;2023-05-07T08:23:19;8.48;;;4.47;;
21786;SDS011;11055;50.870;4.316;2023-05-07T08:25:46;10.10;;;4.78;;
21786;SDS011;11055;50.870;4.316;2023-05-07T08:28:11;11.32;;;7.03;;
21786;SDS011;11055;50.870;4.316;2023-05-07T08:30:37;8.63;;;4.95;;
21786;SDS011;11055;50.870;4.316;2023-05-07T08:33:03;8.65;;;5.28;;
21786;SDS011;11055;50.870;4.316;2023-05-07T08:35:28;10.93;;;4.90;;
21786;SDS011;11055;50.870;4.316;2023-05-07T08:37:54;7.97;;;5.28;;
21786;SDS011;11055;50.870;4.316;2023-05-07T08:40:20;9.10;;;6.13;;
21786;SDS011;11055;50.870;4.316;2023-05-07T08:42:51;9.57;;;5.70;;
21786;SDS011;11055;50.870;4.316;2023-05-07T08:45:18;6.45;;;4.75;;
21786;SDS011;11055;50.870;4.316;2023-05-07T08:47:50;7.68;;;4.82;;
21786;SDS011;11055;50.870;4.316;2023-05-07T08:50:20;8.13;;;4.75;;
21786;SDS011;11055;50.870;4.316;2023-05-07T08:52:47;9.82;;;5.40;;
21786;SDS011;11055;50.870;4.316;2023-05-07T08:55:13;7.43;;;5.10;;
21786;SDS011;11055;50.870;4.316;2023-05-07T08:57:38;8.27;;;3.90;;
21786;SDS011;11055;50.870;4.316;2023-05-07T09:00:05;6.70;;;4.15;;
21786;SDS011;11055;50.870;4.316;2023-05-07T09:02:32;6.68;;;4.25;;
21786;SDS011;11055;50.870;4.316;2023-05-07T09:04:58;12.00;;;5.43;;
21786;SDS011;11055;50.870;4.316;2023-05-07T09:07:24;16.40;;;11.18;;
21786;SDS011;11055;50.870;4.316;2023-05-07T09:09:51;7.90;;;4.53;;
21786;SDS011;11055;50.870;4.316;2023-05-07T09:12:17;9.27;;;5.20;;
21786;SDS011;11055;50.870;4.316;2023-05-07T09:14:44;13.20;;;5.43;;
21786;SDS011;11055;50.870;4.316;2023-05-07T09:17:10;8.63;;;5.05;;
21786;SDS011;11055;50.870;4.316;2023-05-07T09:19:36;6.90;;;4.72;;
21786;SDS011;11055;50.870;4.316;2023-05-07T09:22:02;7.13;;;4.38;;
21786;SDS011;11055;50.870;4.316;2023-05-07T09:24:29;7.25;;;4.22;;
21786;SDS011;11055;50.870;4.316;2023-05-07T09:26:59;10.48;;;4.50;;
21786;SDS011;11055;50.870;4.316;2023-05-07T09:29:26;9.77;;;4.63;;
21786;SDS011;11055;50.870;4.316;2023-05-07T09:31:54;9.13;;;4.70;;
21786;SDS011;11055;50.870;4.316;2023-05-07T09:34:20;9.13;;;5.07;;
21786;SDS011;11055;50.870;4.316;2023-05-07T09:36:46;10.45;;;5.20;;
21786;SDS011;11055;50.870;4.316;2023-05-07T09:39:12;7.47;;;5.13;;
21786;SDS011;11055;50.870;4.316;2023-05-07T09:41:46;7.25;;;4.28;;
21786;SDS011;11055;50.870;4.316;2023-05-07T09:44:14;7.95;;;4.30;;
21786;SDS011;11055;50.870;4.316;2023-05-07T09:46:41;7.90;;;5.15;;
21786;SDS011;11055;50.870;4.316;2023-05-07T09:49:11;6.75;;;4.50;;
21786;SDS011;11055;50.870;4.316;2023-05-07T09:51:45;9.02;;;5.20;;
21786;SDS011;11055;50.870;4.316;2023-05-07T09:54:14;9.18;;;5.32;;
21786;SDS011;11055;50.870;4.316;2023-05-07T09:56:40;9.30;;;5.00;;
21786;SDS011;11055;50.870;4.316;2023-05-07T09:59:07;6.97;;;4.93;;
21786;SDS011;11055;50.870;4.316;2023-05-07T10:01:35;9.20;;;4.70;;
21786;SDS011;11055;50.870;4.316;2023-05-07T10:04:02;8.50;;;5.53;;
21786;SDS011;11055;50.870;4.316;2023-05-07T10:06:29;8.45;;;5.03;;
21786;SDS011;11055;50.870;4.316;2023-05-07T10:08:55;8.27;;;4.65;;
21786;SDS011;11055;50.870;4.316;2023-05-07T10:11:22;6.53;;;3.92;;
21786;SDS011;11055;50.870;4.316;2023-05-07T10:13:48;7.50;;;4.05;;
21786;SDS011;11055;50.870;4.316;2023-05-07T10:16:14;7.53;;;4.60;;
21786;SDS011;11055;50.870;4.316;2023-05-07T10:18:42;8.93;;;4.85;;
21786;SDS011;11055;50.870;4.316;2023-05-07T10:21:11;6.07;;;4.40;;
21786;SDS011;11055;50.870;4.316;2023-05-07T10:23:54;8.80;;;5.03;;
21786;SDS011;11055;50.870;4.316;2023-05-07T10:26:25;10.77;;;6.03;;
21786;SDS011;11055;50.870;4.316;2023-05-07T10:28:54;7.28;;;5.85;;
21786;SDS011;11055;50.870;4.316;2023-05-07T10:34:14;6.63;;;5.03;;
21786;SDS011;11055;50.870;4.316;2023-05-07T10:36:45;9.57;;;5.40;;
21786;SDS011;11055;50.870;4.316;2023-05-07T10:39:12;10.27;;;5.80;;
21786;SDS011;11055;50.870;4.316;2023-05-07T10:41:38;8.02;;;6.28;;
21786;SDS011;11055;50.870;4.316;2023-05-07T10:44:04;8.68;;;5.85;;
21786;SDS011;11055;50.870;4.316;2023-05-07T10:46:30;6.72;;;5.63;;
21786;SDS011;11055;50.870;4.316;2023-05-07T10:51:25;7.22;;;4.47;;
21786;SDS011;11055;50.870;4.316;2023-05-07T10:56:42;6.68;;;4.35;;
21786;SDS011;11055;50.870;4.316;2023-05-07T10:59:30;7.63;;;4.50;;
21786;SDS011;11055;50.870;4.316;2023-05-07T11:01:57;9.23;;;5.45;;
21786;SDS011;11055;50.870;4.316;2023-05-07T11:04:28;6.97;;;5.22;;
21786;SDS011;11055;50.870;4.316;2023-05-07T11:15:02;10.90;;;5.15;;
21786;SDS011;11055;50.870;4.316;2023-05-07T11:17:29;7.35;;;5.25;;
21786;SDS011;11055;50.870;4.316;2023-05-07T11:19:59;5.88;;;3.70;;
21786;SDS011;11055;50.870;4.316;2023-05-07T11:25:03;6.97;;;4.63;;
21786;SDS011;11055;50.870;4.316;2023-05-07T11:27:30;7.18;;;5.22;;
21786;SDS011;11055;50.870;4.316;2023-05-07T11:29:57;5.97;;;4.43;;
21786;SDS011;11055;50.870;4.316;2023-05-07T11:32:31;8.00;;;5.30;;
21786;SDS011;11055;50.870;4.316;2023-05-07T11:34:58;20.73;;;18.02;;
21786;SDS011;11055;50.870;4.316;2023-05-07T11:37:25;6.57;;;5.85;;
21786;SDS011;11055;50.870;4.316;2023-05-07T11:40:07;9.77;;;4.95;;
21786;SDS011;11055;50.870;4.316;2023-05-07T11:42:39;6.95;;;4.88;;
21786;SDS011;11055;50.870;4.316;2023-05-07T11:45:08;7.35;;;4.72;;
21786;SDS011;11055;50.870;4.316;2023-05-07T11:47:35;8.95;;;5.00;;
21786;SDS011;11055;50.870;4.316;2023-05-07T11:50:04;6.38;;;4.05;;
21786;SDS011;11055;50.870;4.316;2023-05-07T11:52:32;11.02;;;5.30;;
21786;SDS011;11055;50.870;4.316;2023-05-07T11:54:58;5.97;;;4.40;;
21786;SDS011;11055;50.870;4.316;2023-05-07T11:57:25;7.05;;;4.78;;
21786;SDS011;11055;50.870;4.316;2023-05-07T11:59:57;8.80;;;4.60;;
21786;SDS011;11055;50.870;4.316;2023-05-07T12:02:25;7.47;;;4.93;;
21786;SDS011;11055;50.870;4.316;2023-05-07T12:04:51;7.68;;;4.90;;
21786;SDS011;11055;50.870;4.316;2023-05-07T12:07:17;7.13;;;4.32;;
21786;SDS011;11055;50.870;4.316;2023-05-07T12:09:44;5.53;;;4.10;;
21786;SDS011;11055;50.870;4.316;2023-05-07T12:12:10;5.82;;;4.60;;
21786;SDS011;11055;50.870;4.316;2023-05-07T12:14:40;6.55;;;4.63;;
21786;SDS011;11055;50.870;4.316;2023-05-07T12:17:07;5.78;;;5.10;;
21786;SDS011;11055;50.870;4.316;2023-05-07T12:19:34;7.07;;;4.97;;
21786;SDS011;11055;50.870;4.316;2023-05-07T12:22:02;8.13;;;5.00;;
21786;SDS011;11055;50.870;4.316;2023-05-07T12:24:28;7.82;;;4.80;;
21786;SDS011;11055;50.870;4.316;2023-05-07T12:26:54;5.88;;;4.38;;
21786;SDS011;11055;50.870;4.316;2023-05-07T12:29:23;5.85;;;4.50;;
21786;SDS011;11055;50.870;4.316;2023-05-07T12:31:52;6.32;;;4.60;;
21786;SDS011;11055;50.870;4.316;2023-05-07T12:34:17;6.13;;;4.55;;
21786;SDS011;11055;50.870;4.316;2023-05-07T12:36:43;6.40;;;3.83;;
21786;SDS011;11055;50.870;4.316;2023-05-07T12:39:09;9.18;;;4.80;;
21786;SDS011;11055;50.870;4.316;2023-05-07T12:44:21;6.85;;;4.68;;
21786;SDS011;11055;50.870;4.316;2023-05-07T12:46:48;5.65;;;4.60;;
21786;SDS011;11055;50.870;4.316;2023-05-07T12:49:14;6.38;;;4.90;;
21786;SDS011;11055;50.870;4.316;2023-05-07T12:51:40;5.25;;;4.68;;
21786;SDS011;11055;50.870;4.316;2023-05-07T12:54:06;6.07;;;4.88;;
21786;SDS011;11055;50.870;4.316;2023-05-07T12:56:31;5.28;;;4.78;;
21786;SDS011;11055;50.870;4.316;2023-05-07T12:59:00;7.00;;;4.80;;
21786;SDS011;11055;50.870;4.316;2023-05-07T13:01:29;6.60;;;5.28;;
21786;SDS011;11055;50.870;4.316;2023-05-07T13:03:58;6.80;;;4.87;;
21786;SDS011;11055;50.870;4.316;2023-05-07T13:06:26;7.07;;;5.43;;
21786;SDS011;11055;50.870;4.316;2023-05-07T13:08:51;6.97;;;6.10;;
21786;SDS011;11055;50.870;4.316;2023-05-07T13:11:17;7.68;;;6.97;;
21786;SDS011;11055;50.870;4.316;2023-05-07T13:13:43;9.07;;;7.65;;
21786;SDS011;11055;50.870;4.316;2023-05-07T13:16:10;8.90;;;8.10;;
21786;SDS011;11055;50.870;4.316;2023-05-07T13:18:37;8.30;;;7.50;;
21786;SDS011;11055;50.870;4.316;2023-05-07T13:21:04;8.45;;;7.57;;
21786;SDS011;11055;50.870;4.316;2023-05-07T13:23:29;10.20;;;8.30;;
21786;SDS011;11055;50.870;4.316;2023-05-07T13:25:55;9.57;;;8.07;;
21786;SDS011;11055;50.870;4.316;2023-05-07T13:28:22;8.82;;;8.02;;
21786;SDS011;11055;50.870;4.316;2023-05-07T13:30:48;9.45;;;8.60;;
21786;SDS011;11055;50.870;4.316;2023-05-07T13:33:14;9.13;;;8.23;;
21786;SDS011;11055;50.870;4.316;2023-05-07T13:35:41;9.60;;;8.60;;
21786;SDS011;11055;50.870;4.316;2023-05-07T13:38:06;10.10;;;9.00;;
21786;SDS011;11055;50.870;4.316;2023-05-07T13:40:33;9.43;;;8.52;;
21786;SDS011;11055;50.870;4.316;2023-05-07T13:42:59;11.23;;;10.18;;
21786;SDS011;11055;50.870;4.316;2023-05-07T13:45:28;10.73;;;9.73;;
21786;SDS011;11055;50.870;4.316;2023-05-07T13:47:55;11.27;;;10.05;;
21786;SDS011;11055;50.870;4.316;2023-05-07T13:50:21;12.10;;;10.90;;
21786;SDS011;11055;50.870;4.316;2023-05-07T13:52:47;12.45;;;11.18;;
21786;SDS011;11055;50.870;4.316;2023-05-07T13:55:25;12.77;;;11.63;;
21786;SDS011;11055;50.870;4.316;2023-05-07T13:57:57;12.02;;;10.82;;
21786;SDS011;11055;50.870;4.316;2023-05-07T14:00:24;13.05;;;11.85;;
21786;SDS011;11055;50.870;4.316;2023-05-07T14:02:51;11.45;;;10.32;;
21786;SDS011;11055;50.870;4.316;2023-05-07T14:05:17;10.85;;;9.82;;
21786;SDS011;11055;50.870;4.316;2023-05-07T14:07:43;11.45;;;10.45;;
21786;SDS011;11055;50.870;4.316;2023-05-07T14:10:09;11.20;;;10.10;;
21786;SDS011;11055;50.870;4.316;2023-05-07T14:12:36;11.02;;;9.93;;
21786;SDS011;11055;50.870;4.316;2023-05-07T14:15:02;11.20;;;10.13;;
21786;SDS011;11055;50.870;4.316;2023-05-07T14:17:28;11.82;;;10.77;;
21786;SDS011;11055;50.870;4.316;2023-05-07T14:19:53;12.05;;;10.95;;
21786;SDS011;11055;50.870;4.316;2023-05-07T14:22:20;14.05;;;12.63;;
21786;SDS011;11055;50.870;4.316;2023-05-07T14:24:47;11.80;;;10.60;;
21786;SDS011;11055;50.870;4.316;2023-05-07T14:27:13;12.25;;;10.88;;
21786;SDS011;11055;50.870;4.316;2023-05-07T14:29:38;13.30;;;11.13;;
21786;SDS011;11055;50.870;4.316;2023-05-07T14:32:04;11.52;;;10.30;;
21786;SDS011;11055;50.870;4.316;2023-05-07T14:34:30;11.85;;;10.68;;
21786;SDS011;11055;50.870;4.316;2023-05-07T14:36:57;11.90;;;10.55;;
21786;SDS011;11055;50.870;4.316;2023-05-07T14:39:23;11.90;;;10.70;;
21786;SDS011;11055;50.870;4.316;2023-05-07T14:41:49;12.23;;;11.02;;
21786;SDS011;11055;50.870;4.316;2023-05-07T14:44:14;11.90;;;10.73;;
21786;SDS011;11055;50.870;4.316;2023-05-07T14:46:40;12.98;;;11.68;;
21786;SDS011;11055;50.870;4.316;2023-05-07T14:49:05;13.75;;;12.40;;
21786;SDS011;11055;50.870;4.316;2023-05-07T14:51:32;13.88;;;12.68;;
21786;SDS011;11055;50.870;4.316;2023-05-07T14:53:58;14.10;;;12.70;;
21786;SDS011;11055;50.870;4.316;2023-05-07T14:56:23;13.48;;;12.07;;
21786;SDS011;11055;50.870;4.316;2023-05-07T14:58:49;14.65;;;13.23;;
21786;SDS011;11055;50.870;4.316;2023-05-07T15:01:15;14.38;;;12.93;;
21786;SDS011;11055;50.870;4.316;2023-05-07T15:03:41;12.65;;;11.35;;